F/V Berriz Patxiku — ECES — position and weather

sailwx.info

Track history (hours):
 
Tides and Currents Weather Stations Pressure Air Temp Water Temp Dewpoint Dewpoint Depression Visibility Wind Speed Wind Dir Waves Ship Positions

F/V Berriz Patxiku

Last reported at 2014-Jul-27 20:19 UTC. Time now 2014-Jul-30 01:07 UTC.
Position N 43°31' W 002°30'.

Length 30 m.

Type: Fishing. MMSI: 224106260.

Date/timePositionNaut miles runAvg speedWind from/ knotsBaromVisibWave heightAir tempDewpointWater temp
2014-Jul-27 20:19N 43°31' W 002°30'6 7.2
2014-Jul-27 19:33N 43°29' W 002°24'1010.0
2014-Jul-27 18:32N 43°21' W 002°14'  
2014-Jul-24 05:20N 43°26' W 002°27'2 2.9
2014-Jul-24 04:34N 43°27' W 002°29'1 0.6
2014-Jul-24 03:32N 43°27' W 002°30'0 0.5
2014-Jul-24 02:32N 43°27' W 002°31'0 0.5
2014-Jul-24 01:34N 43°27' W 002°32'0 0.5
2014-Jul-24 00:34N 43°27' W 002°32'0 0.4
2014-Jul-23 23:33N 43°27' W 002°33'0 0.5
2014-Jul-23 22:33N 43°26' W 002°33'0 0.4
2014-Jul-23 21:28N 43°26' W 002°34'0 0.3
2014-Jul-23 20:33N 43°26' W 002°34'2 2.2
2014-Jul-23 19:31N 43°25' W 002°31'  
2014-Jul-18 03:14N 43°21' W 002°11'1 0.4
2014-Jul-18 00:30N 43°21' W 002°09'2 1.1
2014-Jul-17 23:07N 43°22' W 002°08'  
Track history (hours):
 
Tides and Currents Weather Stations Pressure Air Temp Water Temp Dewpoint Dewpoint Depression Visibility Wind Speed Wind Dir Waves Ship Positions

F/V Berriz Patxiku

Last reported at 2014-Jul-27 20:19 UTC. Time now 2014-Jul-30 01:07 UTC.
Position N 43°31' W 002°30'.

Length 30 m.

Type: Fishing. MMSI: 224106260.

Date/timePositionNaut miles runAvg speedWind from/ knotsBaromVisibWave heightAir tempDewpointWater temp
2014-Jul-27 20:19N 43°31' W 002°30'6 7.2
2014-Jul-27 19:33N 43°29' W 002°24'1010.0
2014-Jul-27 18:32N 43°21' W 002°14'  
2014-Jul-24 05:20N 43°26' W 002°27'2 2.9
2014-Jul-24 04:34N 43°27' W 002°29'1 0.6
2014-Jul-24 03:32N 43°27' W 002°30'0 0.5
2014-Jul-24 02:32N 43°27' W 002°31'0 0.5
2014-Jul-24 01:34N 43°27' W 002°32'0 0.5
2014-Jul-24 00:34N 43°27' W 002°32'0 0.4
2014-Jul-23 23:33N 43°27' W 002°33'0 0.5
2014-Jul-23 22:33N 43°26' W 002°33'0 0.4
2014-Jul-23 21:28N 43°26' W 002°34'0 0.3
2014-Jul-23 20:33N 43°26' W 002°34'2 2.2
2014-Jul-23 19:31N 43°25' W 002°31'  
2014-Jul-18 03:14N 43°21' W 002°11'1 0.4
2014-Jul-18 00:30N 43°21' W 002°09'2 1.1
2014-Jul-17 23:07N 43°22' W 002°08'  

Dump ship's entire track history